Time;durP1;ratioP1;P1;durP2;ratioP2;P2;SDS_P1;SDS_P2;PMS_P1;PMS_P2;Temp;Humidity;BMP_temperature;BMP_pressure;BME280_temperature;BME280_humidity;BME280_pressure;Samples;Min_cycle;Max_cycle;Signal;HPM_P1;HPM_P2
2024/01/16 00:01:20;;;;;;;5.93;2.50;;;0.00;99.90;;;;;;4967552;28;20027;-73
2024/01/16 00:03:46;;;;;;;6.28;2.88;;;-0.10;99.90;;;;;;4970406;28;20568;-74
2024/01/16 00:06:12;;;;;;;7.43;2.42;;;0.00;99.90;;;;;;4968289;28;20490;-74
2024/01/16 00:08:38;;;;;;;6.60;3.00;;;0.00;99.90;;;;;;4970477;28;20084;-73
2024/01/16 00:11:03;;;;;;;5.53;2.78;;;0.00;99.90;;;;;;4966943;28;20094;-73
2024/01/16 00:13:29;;;;;;;5.75;2.95;;;0.00;99.90;;;;;;4969297;28;20110;-74
2024/01/16 00:15:56;;;;;;;6.65;2.55;;;-0.10;99.90;;;;;;4967854;28;20049;-73
2024/01/16 00:18:22;;;;;;;9.82;3.78;;;0.00;99.90;;;;;;4969029;28;20030;-73
2024/01/16 00:20:48;;;;;;;10.13;3.78;;;0.00;99.90;;;;;;4969617;28;20106;-73
2024/01/16 00:23:14;;;;;;;6.03;3.33;;;0.00;99.90;;;;;;4967243;28;20023;-73
2024/01/16 00:25:40;;;;;;;14.27;4.00;;;-0.10;99.90;;;;;;4968970;28;20039;-74
2024/01/16 00:28:06;;;;;;;15.60;4.85;;;0.00;99.90;;;;;;4966293;28;20026;-74
2024/01/16 00:30:31;;;;;;;16.13;6.10;;;0.00;99.90;;;;;;4969078;28;20486;-73
2024/01/16 00:32:57;;;;;;;18.33;6.93;;;-0.10;99.90;;;;;;4968003;28;20027;-74
2024/01/16 00:35:23;;;;;;;12.63;5.18;;;0.00;99.90;;;;;;4966919;28;20692;-74
2024/01/16 00:37:49;;;;;;;11.23;3.60;;;-0.10;99.90;;;;;;4964726;28;20038;-73
2024/01/16 00:40:14;;;;;;;7.45;3.03;;;-0.10;99.90;;;;;;4965751;28;20693;-74
2024/01/16 00:42:40;;;;;;;6.18;2.95;;;-0.10;99.90;;;;;;4964123;28;20023;-73
2024/01/16 00:45:06;;;;;;;8.10;3.22;;;-0.10;99.90;;;;;;4966521;28;20058;-74
2024/01/16 00:47:31;;;;;;;7.47;3.22;;;0.00;99.90;;;;;;4967319;28;20027;-74
2024/01/16 00:49:57;;;;;;;5.60;2.75;;;0.00;99.90;;;;;;4966377;28;20023;-74
2024/01/16 00:52:22;;;;;;;5.20;2.58;;;0.00;99.90;;;;;;4965617;28;20026;-73
2024/01/16 00:54:48;;;;;;;5.63;2.35;;;0.00;99.90;;;;;;4967287;28;20077;-73
2024/01/16 00:57:16;;;;;;;5.97;2.85;;;0.00;99.90;;;;;;4966004;28;20034;-73
2024/01/16 00:59:41;;;;;;;8.85;2.70;;;0.00;99.90;;;;;;4966510;28;20027;-74
2024/01/16 01:02:09;;;;;;;6.78;2.65;;;0.00;99.90;;;;;;4966129;28;20057;-74
2024/01/16 01:04:35;;;;;;;7.70;2.88;;;0.00;99.90;;;;;;4962394;28;20054;-73
2024/01/16 01:07:01;;;;;;;8.00;2.63;;;0.00;99.90;;;;;;4968999;28;20062;-74
2024/01/16 01:09:26;;;;;;;5.10;2.20;;;0.00;99.90;;;;;;4967915;28;20027;-73
2024/01/16 01:11:52;;;;;;;6.53;2.83;;;0.00;99.90;;;;;;4966306;28;20354;-74
2024/01/16 01:14:17;;;;;;;5.47;2.50;;;0.00;99.90;;;;;;4968909;28;20066;-74
2024/01/16 01:16:43;;;;;;;8.43;2.50;;;0.00;99.90;;;;;;4965114;28;20031;-74
2024/01/16 01:19:08;;;;;;;5.25;2.30;;;0.00;99.90;;;;;;4968704;28;20022;-73
2024/01/16 01:21:35;;;;;;;7.68;2.35;;;0.00;99.90;;;;;;4970071;28;20045;-74
2024/01/16 01:24:01;;;;;;;4.20;2.20;;;0.00;99.90;;;;;;4970064;28;20100;-74
2024/01/16 01:26:27;;;;;;;5.13;2.13;;;0.00;99.90;;;;;;4969390;28;20516;-74
2024/01/16 01:28:52;;;;;;;3.95;2.10;;;0.00;99.90;;;;;;4970117;28;20089;-74
2024/01/16 01:31:18;;;;;;;4.50;2.25;;;0.00;99.90;;;;;;4970083;28;20035;-74
2024/01/16 01:33:43;;;;;;;5.20;2.28;;;0.00;99.90;;;;;;4969859;28;20026;-74
2024/01/16 01:36:09;;;;;;;4.47;1.98;;;0.00;99.90;;;;;;4970545;28;20589;-74
2024/01/16 01:38:35;;;;;;;5.60;2.30;;;0.00;99.90;;;;;;4968054;28;20026;-74
2024/01/16 01:41:01;;;;;;;5.07;2.08;;;0.00;99.90;;;;;;4969484;28;20039;-74
2024/01/16 01:43:27;;;;;;;4.47;2.38;;;0.00;99.90;;;;;;4966220;28;20089;-74
2024/01/16 01:46:01;;;;;;;7.28;2.42;;;0.00;99.90;;;;;;4964752;28;20058;-74
2024/01/16 01:48:27;;;;;;;11.32;2.75;;;0.00;99.90;;;;;;4969055;28;20446;-74
2024/01/16 01:50:53;;;;;;;4.55;2.13;;;0.00;99.90;;;;;;4972043;28;20269;-74
2024/01/16 01:53:18;;;;;;;5.30;2.05;;;0.00;99.90;;;;;;4971349;28;20662;-73
2024/01/16 01:55:44;;;;;;;5.07;1.92;;;0.00;99.90;;;;;;4965703;28;20105;-74
2024/01/16 01:58:10;;;;;;;4.60;2.50;;;0.00;99.90;;;;;;4969604;28;20394;-74
2024/01/16 02:00:36;;;;;;;5.22;2.30;;;0.00;99.90;;;;;;4969902;28;20061;-74
2024/01/16 02:03:01;;;;;;;5.57;2.30;;;0.00;99.90;;;;;;4969866;28;20054;-74
2024/01/16 02:05:29;;;;;;;5.10;2.45;;;0.00;99.90;;;;;;4967782;28;20041;-73
2024/01/16 02:07:54;;;;;;;5.38;2.60;;;0.00;99.90;;;;;;4968464;28;20541;-73
2024/01/16 02:10:20;;;;;;;4.70;2.20;;;0.00;99.90;;;;;;4969656;28;20018;-74
2024/01/16 02:12:46;;;;;;;4.53;2.58;;;0.00;99.90;;;;;;4968665;28;20023;-73
2024/01/16 02:15:12;;;;;;;5.30;2.35;;;0.00;99.90;;;;;;4969033;28;20023;-73
2024/01/16 02:17:37;;;;;;;6.60;2.50;;;0.00;99.90;;;;;;4968826;28;20023;-73
2024/01/16 02:20:04;;;;;;;6.10;2.50;;;0.00;99.90;;;;;;4970214;28;20053;-73
2024/01/16 02:22:33;;;;;;;2.95;1.70;;;0.00;99.90;;;;;;4970285;28;20391;-74
2024/01/16 02:24:59;;;;;;;3.47;2.10;;;0.00;99.90;;;;;;4970673;28;20073;-74
2024/01/16 02:27:24;;;;;;;6.60;2.28;;;0.00;99.90;;;;;;4968633;28;20038;-73
2024/01/16 02:29:50;;;;;;;7.25;2.05;;;0.00;99.90;;;;;;4967307;28;20038;-73
2024/01/16 02:32:16;;;;;;;4.63;2.60;;;0.00;99.90;;;;;;4969985;28;20023;-73
2024/01/16 02:34:41;;;;;;;4.70;2.05;;;0.00;99.90;;;;;;4966423;28;20541;-73
2024/01/16 02:37:07;;;;;;;4.20;1.83;;;0.00;99.90;;;;;;4969040;28;20098;-74
2024/01/16 02:39:33;;;;;;;4.85;2.17;;;0.00;99.90;;;;;;4969770;28;20444;-73
2024/01/16 02:41:58;;;;;;;4.13;2.22;;;0.00;99.90;;;;;;4971296;28;20038;-73
2024/01/16 02:44:24;;;;;;;5.95;2.17;;;0.00;99.90;;;;;;4966167;28;20041;-73
2024/01/16 02:46:50;;;;;;;5.00;2.50;;;-0.10;99.90;;;;;;4967388;28;20058;-74
2024/01/16 02:49:15;;;;;;;7.25;2.70;;;-0.10;99.90;;;;;;4967943;28;20031;-73
2024/01/16 02:51:41;;;;;;;4.05;2.35;;;-0.10;99.90;;;;;;4968712;28;20505;-74
2024/01/16 02:54:07;;;;;;;7.70;2.97;;;-0.10;99.90;;;;;;4969053;28;20050;-73
2024/01/16 02:56:33;;;;;;;7.70;2.45;;;-0.20;99.90;;;;;;4966630;28;20136;-73
2024/01/16 02:58:59;;;;;;;5.10;1.92;;;-0.20;99.90;;;;;;4970693;28;20085;-73
2024/01/16 03:01:24;;;;;;;4.38;1.98;;;-0.20;99.90;;;;;;4966072;28;20034;-73
2024/01/16 03:03:50;;;;;;;4.18;2.20;;;-0.30;99.90;;;;;;4968041;28;20110;-73
2024/01/16 03:06:25;;;;;;;6.50;2.15;;;-0.30;99.90;;;;;;4968834;28;20478;-73
2024/01/16 03:08:51;;;;;;;5.63;2.03;;;-0.30;99.90;;;;;;4968055;28;20067;-73
2024/01/16 03:11:17;;;;;;;4.45;1.77;;;-0.30;99.90;;;;;;4967453;28;20027;-73
2024/01/16 03:13:43;;;;;;;6.40;2.28;;;-0.30;99.90;;;;;;4969092;28;20039;-73
2024/01/16 03:16:10;;;;;;;3.97;2.20;;;-0.40;99.90;;;;;;4965663;28;20047;-73
2024/01/16 03:18:37;;;;;;;5.07;2.88;;;-0.40;99.90;;;;;;4968082;28;20038;-73
2024/01/16 03:21:05;;;;;;;6.07;2.67;;;-0.40;99.90;;;;;;4967286;28;20161;-73
2024/01/16 03:23:30;;;;;;;6.28;2.88;;;-0.50;99.90;;;;;;4969171;28;20038;-73
2024/01/16 03:25:57;;;;;;;14.15;4.78;;;-0.50;99.90;;;;;;4968361;28;20032;-73
2024/01/16 03:28:23;;;;;;;15.75;6.47;;;-0.50;99.90;;;;;;4966741;28;20509;-73
2024/01/16 03:30:48;;;;;;;9.60;4.05;;;-0.60;99.90;;;;;;4967774;28;20026;-74
2024/01/16 03:33:14;;;;;;;13.50;5.57;;;-0.60;99.90;;;;;;4966872;28;20023;-73
2024/01/16 03:35:39;;;;;;;7.90;3.40;;;-0.60;99.90;;;;;;4963216;28;20114;-74
2024/01/16 03:38:08;;;;;;;9.23;3.45;;;-0.70;99.90;;;;;;4966501;28;20105;-74
2024/01/16 03:40:34;;;;;;;5.32;2.70;;;-0.70;99.90;;;;;;4968054;28;20458;-74
2024/01/16 03:43:05;;;;;;;5.40;2.42;;;-0.70;99.90;;;;;;4967680;28;20027;-74
2024/01/16 03:45:30;;;;;;;5.85;2.42;;;-0.70;99.90;;;;;;4966868;28;20026;-73
2024/01/16 03:47:56;;;;;;;6.15;2.50;;;-0.80;99.90;;;;;;4966046;28;20042;-74
2024/01/16 03:50:21;;;;;;;5.13;2.10;;;-0.80;99.90;;;;;;4963803;28;20475;-73
2024/01/16 03:52:47;;;;;;;4.68;2.33;;;-0.90;99.90;;;;;;4967603;28;20106;-74
2024/01/16 03:55:13;;;;;;;4.78;2.20;;;-0.90;99.90;;;;;;4968921;28;20024;-74
2024/01/16 03:57:38;;;;;;;5.45;1.98;;;-0.90;99.90;;;;;;4968159;28;20023;-73
2024/01/16 04:00:05;;;;;;;4.47;2.25;;;-1.00;99.90;;;;;;4966919;28;20027;-74
2024/01/16 04:02:31;;;;;;;5.18;2.08;;;-1.00;99.90;;;;;;4969340;28;20018;-74
2024/01/16 04:04:56;;;;;;;6.00;1.90;;;-1.00;99.90;;;;;;4966838;28;20030;-74
2024/01/16 04:07:28;;;;;;;6.13;2.22;;;-1.10;99.90;;;;;;4966466;28;20077;-74
2024/01/16 04:09:53;;;;;;;6.80;2.58;;;-1.10;99.90;;;;;;4967126;28;20635;-74
2024/01/16 04:12:19;;;;;;;6.55;2.47;;;-1.10;99.90;;;;;;4969732;28;20030;-73
2024/01/16 04:14:44;;;;;;;3.83;1.77;;;-1.20;99.90;;;;;;4968510;28;20131;-73
2024/01/16 04:17:10;;;;;;;4.22;2.13;;;-1.20;99.90;;;;;;4968571;28;20150;-73
2024/01/16 04:19:35;;;;;;;5.10;2.28;;;-1.20;99.90;;;;;;4967237;28;20552;-74
2024/01/16 04:22:01;;;;;;;5.05;2.40;;;-1.30;99.90;;;;;;4966205;28;20069;-74
2024/01/16 04:24:27;;;;;;;6.00;2.53;;;-1.30;99.90;;;;;;4967153;28;20031;-73
2024/01/16 04:26:53;;;;;;;6.40;2.40;;;-1.30;99.90;;;;;;4965484;28;20540;-74
2024/01/16 04:29:18;;;;;;;6.93;2.53;;;-1.40;99.90;;;;;;4962827;28;20058;-74
2024/01/16 04:31:44;;;;;;;5.15;2.65;;;-1.40;99.90;;;;;;4968849;28;20018;-73
2024/01/16 04:34:10;;;;;;;6.18;2.63;;;-1.40;99.90;;;;;;4967257;28;20482;-72
2024/01/16 04:36:35;;;;;;;6.95;2.53;;;-1.40;99.90;;;;;;4964122;28;20019;-72
2024/01/16 04:39:03;;;;;;;6.90;2.78;;;-1.50;99.90;;;;;;4967305;28;20395;-72
2024/01/16 04:41:28;;;;;;;4.97;2.03;;;-1.50;99.90;;;;;;4966424;28;20062;-73
2024/01/16 04:43:54;;;;;;;7.78;2.92;;;-1.50;99.90;;;;;;4967220;28;20038;-73
2024/01/16 04:46:20;;;;;;;5.25;2.45;;;-1.50;99.90;;;;;;4965751;28;20034;-74
2024/01/16 04:48:45;;;;;;;6.15;2.40;;;-1.50;99.90;;;;;;4968788;28;20121;-73
2024/01/16 04:51:11;;;;;;;7.93;3.13;;;-1.50;99.90;;;;;;4962478;28;20035;-73
2024/01/16 04:53:36;;;;;;;7.07;1.90;;;-1.50;99.90;;;;;;4970329;28;20026;-74
2024/01/16 04:56:02;;;;;;;5.57;2.47;;;-1.60;99.90;;;;;;4969805;28;20401;-73
2024/01/16 04:58:27;;;;;;;7.28;2.83;;;-1.60;99.90;;;;;;4970307;28;20187;-73
2024/01/16 05:00:53;;;;;;;7.07;2.50;;;-1.60;99.90;;;;;;4966462;28;20110;-73
2024/01/16 05:03:19;;;;;;;8.65;2.53;;;-1.60;99.90;;;;;;4971608;28;20038;-73
2024/01/16 05:05:44;;;;;;;6.78;2.75;;;-1.60;99.90;;;;;;4966626;28;20446;-73
2024/01/16 05:08:10;;;;;;;7.65;2.55;;;-1.60;99.90;;;;;;4971753;28;20046;-73
2024/01/16 05:10:35;;;;;;;5.43;2.80;;;-1.70;99.90;;;;;;4972467;28;20026;-73
2024/01/16 05:13:01;;;;;;;9.73;3.25;;;-1.70;99.90;;;;;;4970643;28;20457;-73
2024/01/16 05:15:26;;;;;;;8.18;3.00;;;-1.70;99.90;;;;;;4966700;28;20031;-73
2024/01/16 05:17:53;;;;;;;7.45;2.85;;;-1.70;99.90;;;;;;4970219;28;20150;-73
2024/01/16 05:20:19;;;;;;;8.75;3.00;;;-1.70;99.90;;;;;;4971781;28;20430;-73
2024/01/16 05:22:45;;;;;;;7.07;2.92;;;-1.70;99.90;;;;;;4969520;28;20166;-73
2024/01/16 05:25:10;;;;;;;6.63;3.03;;;-1.70;99.90;;;;;;4966667;28;20469;-73
2024/01/16 05:27:36;;;;;;;7.50;3.63;;;-1.70;99.90;;;;;;4971584;28;20045;-73
2024/01/16 05:30:02;;;;;;;8.43;3.10;;;-1.70;99.90;;;;;;4970047;28;20498;-73
2024/01/16 05:32:27;;;;;;;8.05;3.08;;;-1.70;99.90;;;;;;4972301;28;20019;-73
2024/01/16 05:34:53;;;;;;;5.50;2.55;;;-1.80;99.90;;;;;;4970854;28;20030;-73
2024/01/16 05:37:21;;;;;;;7.30;3.20;;;-1.80;99.90;;;;;;4969175;28;20437;-73
2024/01/16 05:39:47;;;;;;;6.40;2.80;;;-1.80;99.90;;;;;;4968703;28;20026;-72
2024/01/16 05:42:12;;;;;;;8.27;3.25;;;-1.70;99.90;;;;;;4970459;28;20030;-73
2024/01/16 05:44:38;;;;;;;5.40;2.60;;;-1.70;99.90;;;;;;4971555;28;20077;-73
2024/01/16 05:47:05;;;;;;;6.65;3.22;;;-1.80;99.90;;;;;;4964888;28;21690;-73
2024/01/16 05:49:31;;;;;;;7.43;3.33;;;-1.70;99.90;;;;;;4971518;28;20035;-73
2024/01/16 05:51:57;;;;;;;7.53;3.10;;;-1.70;99.90;;;;;;4967658;28;20023;-73
2024/01/16 05:54:23;;;;;;;7.45;3.38;;;-1.80;99.90;;;;;;4969220;28;20023;-72
2024/01/16 05:56:49;;;;;;;8.50;3.65;;;-1.80;99.90;;;;;;4968501;28;20038;-72
2024/01/16 05:59:16;;;;;;;10.25;3.08;;;-1.80;99.90;;;;;;4969329;28;20050;-72
2024/01/16 06:01:41;;;;;;;8.32;3.53;;;-1.70;99.90;;;;;;4968898;28;20653;-73
2024/01/16 06:04:07;;;;;;;7.68;3.20;;;-1.80;99.90;;;;;;4970060;28;20105;-73
2024/01/16 06:06:33;;;;;;;9.05;3.08;;;-1.80;99.90;;;;;;4965769;28;20453;-74
2024/01/16 06:09:02;;;;;;;7.32;3.58;;;-1.70;99.90;;;;;;4968164;28;20046;-73
2024/01/16 06:11:32;;;;;;;7.38;2.70;;;-1.80;99.90;;;;;;4968994;28;20023;-73
2024/01/16 06:13:59;;;;;;;9.65;3.10;;;-1.80;99.90;;;;;;4970077;28;20030;-73
2024/01/16 06:16:24;;;;;;;6.85;2.85;;;-1.70;99.90;;;;;;4970886;28;20031;-73
2024/01/16 06:18:50;;;;;;;7.90;3.10;;;-1.80;99.90;;;;;;4966997;28;20478;-74
2024/01/16 06:21:17;;;;;;;7.93;3.08;;;-1.80;99.90;;;;;;4969059;28;20086;-73
2024/01/16 06:23:43;;;;;;;13.63;3.67;;;-1.80;99.90;;;;;;4965856;28;20129;-73
2024/01/16 06:26:09;;;;;;;7.03;2.72;;;-1.80;99.90;;;;;;4968182;28;20514;-73
2024/01/16 06:28:34;;;;;;;7.15;3.35;;;-1.80;99.90;;;;;;4969338;28;20494;-74
2024/01/16 06:31:00;;;;;;;6.95;3.40;;;-1.80;99.90;;;;;;4969654;28;20538;-73
2024/01/16 06:33:25;;;;;;;28.70;9.05;;;-1.80;99.90;;;;;;4970308;28;20027;-73
2024/01/16 06:35:51;;;;;;;13.32;4.70;;;-1.80;99.90;;;;;;4968412;28;20478;-74
2024/01/16 06:38:17;;;;;;;6.68;3.60;;;-1.90;99.90;;;;;;4964687;28;20077;-77
2024/01/16 06:40:42;;;;;;;9.90;3.30;;;-1.90;99.90;;;;;;4972721;28;21478;-78
2024/01/16 06:43:08;;;;;;;8.57;3.45;;;-1.90;99.90;;;;;;4968054;28;20114;-80
2024/01/16 06:45:34;;;;;;;7.47;2.78;;;-1.90;99.90;;;;;;4972147;28;20026;-77
2024/01/16 06:48:00;;;;;;;7.25;2.65;;;-1.80;99.90;;;;;;4958753;28;20026;-74
2024/01/16 06:50:25;;;;;;;6.38;2.35;;;-1.80;99.90;;;;;;4966953;28;20041;-74
2024/01/16 06:52:51;;;;;;;5.63;2.65;;;-1.80;99.90;;;;;;4971836;28;20082;-73
2024/01/16 06:55:17;;;;;;;7.57;2.88;;;-1.80;99.90;;;;;;4970304;28;20409;-73
2024/01/16 06:57:42;;;;;;;8.48;2.90;;;-1.80;99.90;;;;;;4968002;28;20074;-74
2024/01/16 07:00:08;;;;;;;6.45;2.80;;;-1.70;99.90;;;;;;4964795;28;20114;-73
2024/01/16 07:02:34;;;;;;;11.93;4.18;;;-1.80;99.90;;;;;;4969274;28;20442;-72
2024/01/16 07:04:59;;;;;;;12.27;4.95;;;-1.80;99.90;;;;;;4969336;28;20415;-73
2024/01/16 07:07:25;;;;;;;13.45;4.13;;;-1.80;99.90;;;;;;4968783;28;20030;-73
2024/01/16 07:09:51;;;;;;;8.57;3.50;;;-1.80;99.90;;;;;;4967527;28;20050;-72
2024/01/16 07:12:16;;;;;;;9.25;3.72;;;-1.80;99.90;;;;;;4969850;28;20019;-73
2024/01/16 07:14:42;;;;;;;8.30;4.05;;;-1.80;99.90;;;;;;4970982;28;20097;-72
2024/01/16 07:17:07;;;;;;;7.25;2.65;;;-1.80;99.90;;;;;;4971153;28;20133;-73
2024/01/16 07:19:33;;;;;;;6.10;3.05;;;-1.80;99.90;;;;;;4968671;28;20027;-73
2024/01/16 07:21:59;;;;;;;8.95;2.95;;;-1.90;99.90;;;;;;4968242;28;20039;-72
2024/01/16 07:24:24;;;;;;;8.73;2.97;;;-1.90;99.90;;;;;;4969110;28;20031;-73
2024/01/16 07:26:50;;;;;;;6.57;2.92;;;-1.90;99.90;;;;;;4967977;28;20677;-72
2024/01/16 07:29:16;;;;;;;7.60;2.75;;;-2.00;99.90;;;;;;4963602;28;20124;-72
2024/01/16 07:31:41;;;;;;;6.45;2.55;;;-1.90;99.90;;;;;;4968871;28;20023;-72
2024/01/16 07:34:07;;;;;;;7.05;2.75;;;-1.90;99.90;;;;;;4965190;28;20058;-72
2024/01/16 07:36:33;;;;;;;6.00;2.80;;;-1.90;99.90;;;;;;4962579;28;20030;-72
2024/01/16 07:38:58;;;;;;;6.18;2.47;;;-2.00;99.90;;;;;;4969500;28;20048;-72
2024/01/16 07:41:24;;;;;;;6.95;3.10;;;-1.90;99.90;;;;;;4968814;28;20418;-72
2024/01/16 07:43:49;;;;;;;10.07;3.30;;;-1.90;99.90;;;;;;4969733;28;20149;-72
2024/01/16 07:46:16;;;;;;;8.07;3.03;;;-1.90;99.90;;;;;;4967582;28;20086;-72
2024/01/16 07:48:41;;;;;;;6.25;2.83;;;-1.90;99.90;;;;;;4967421;28;20027;-72
2024/01/16 07:51:07;;;;;;;7.60;2.97;;;-1.90;99.90;;;;;;4965138;28;20392;-73
2024/01/16 07:53:33;;;;;;;9.18;3.22;;;-1.90;99.90;;;;;;4966229;28;20490;-72
2024/01/16 07:55:58;;;;;;;7.72;3.30;;;-1.90;99.90;;;;;;4969141;28;20726;-72
2024/01/16 07:58:24;;;;;;;9.85;3.78;;;-1.90;99.90;;;;;;4969898;28;20037;-72
2024/01/16 08:00:49;;;;;;;9.02;4.00;;;-1.80;99.90;;;;;;4968547;28;20033;-72
2024/01/16 08:03:15;;;;;;;8.82;3.20;;;-1.80;99.90;;;;;;4968483;28;20428;-72
2024/01/16 08:05:41;;;;;;;10.35;3.47;;;-1.80;99.90;;;;;;4967513;28;20550;-73
2024/01/16 08:08:10;;;;;;;9.93;3.70;;;-1.80;99.90;;;;;;4965404;28;20043;-72
2024/01/16 08:10:35;;;;;;;7.20;2.80;;;-1.80;99.90;;;;;;4967530;28;20038;-73
2024/01/16 08:13:01;;;;;;;12.95;3.72;;;-1.70;99.90;;;;;;4971008;28;20023;-73
2024/01/16 08:15:27;;;;;;;11.80;3.28;;;-1.70;99.90;;;;;;4969827;28;20027;-71
2024/01/16 08:17:52;;;;;;;6.03;3.17;;;-1.70;99.90;;;;;;4969561;28;20035;-70
2024/01/16 08:20:18;;;;;;;9.32;3.10;;;-1.70;99.90;;;;;;4969217;28;20022;-71
2024/01/16 08:22:44;;;;;;;10.75;3.60;;;-1.60;99.90;;;;;;4970741;28;20433;-71
2024/01/16 08:25:09;;;;;;;9.43;3.38;;;-1.60;99.90;;;;;;4968574;28;20043;-71
2024/01/16 08:27:37;;;;;;;13.07;4.57;;;-1.60;99.90;;;;;;4970321;28;20045;-71
2024/01/16 08:30:04;;;;;;;5.82;3.15;;;-1.60;99.90;;;;;;4968775;28;20019;-71
2024/01/16 08:32:31;;;;;;;10.02;3.33;;;-1.50;99.90;;;;;;4969337;28;20023;-71
2024/01/16 08:34:56;;;;;;;10.35;3.45;;;-1.50;99.90;;;;;;4966965;28;20038;-71
2024/01/16 08:37:22;;;;;;;6.25;2.83;;;-1.50;99.90;;;;;;4966763;28;20023;-71
2024/01/16 08:39:47;;;;;;;7.75;3.40;;;-1.40;99.90;;;;;;4969859;28;20446;-70
2024/01/16 08:42:13;;;;;;;24.45;5.05;;;-1.40;99.90;;;;;;4971119;28;20023;-71
2024/01/16 08:44:39;;;;;;;6.95;3.92;;;-1.30;99.90;;;;;;4967776;28;20517;-71
2024/01/16 08:47:06;;;;;;;8.52;3.85;;;-1.30;99.90;;;;;;4968415;28;20034;-70
2024/01/16 08:49:32;;;;;;;10.50;4.07;;;-1.30;99.90;;;;;;4970199;28;20031;-70
2024/01/16 08:51:58;;;;;;;11.27;4.20;;;-1.20;99.90;;;;;;4969993;28;20023;-70
2024/01/16 08:54:25;;;;;;;7.90;3.58;;;-1.10;99.90;;;;;;4967341;28;20117;-71
2024/01/16 08:56:51;;;;;;;8.20;3.88;;;-1.10;99.90;;;;;;4968914;28;20039;-71
2024/01/16 08:59:17;;;;;;;10.20;5.07;;;-1.00;99.90;;;;;;4971068;28;20549;-71
2024/01/16 09:01:42;;;;;;;10.38;5.10;;;-1.00;99.90;;;;;;4969657;28;20038;-72
2024/01/16 09:04:08;;;;;;;10.27;4.55;;;-0.90;99.90;;;;;;4968500;28;20031;-71
2024/01/16 09:06:34;;;;;;;12.00;5.43;;;-0.90;99.90;;;;;;4970610;28;20038;-71
2024/01/16 09:08:59;;;;;;;11.38;4.95;;;-0.80;99.90;;;;;;4969074;28;20106;-71
2024/01/16 09:11:25;;;;;;;15.05;5.80;;;-0.80;99.90;;;;;;4969042;28;20073;-71
2024/01/16 09:13:51;;;;;;;11.65;5.80;;;-0.80;99.90;;;;;;4968664;28;20243;-71
2024/01/16 09:16:17;;;;;;;9.68;4.75;;;-0.70;99.90;;;;;;4968426;28;20118;-71
2024/01/16 09:18:43;;;;;;;11.82;5.22;;;-0.70;99.90;;;;;;4969878;28;20035;-71
2024/01/16 09:21:08;;;;;;;11.88;5.60;;;-0.60;99.90;;;;;;4970369;28;20030;-71
2024/01/16 09:23:34;;;;;;;9.75;5.60;;;-0.60;99.90;;;;;;4968587;28;20054;-71
2024/01/16 09:26:00;;;;;;;10.85;4.82;;;-0.60;99.90;;;;;;4968287;28;20039;-71
2024/01/16 09:28:28;;;;;;;11.68;4.85;;;-0.50;99.90;;;;;;4967723;28;20023;-71
2024/01/16 09:30:55;;;;;;;11.15;4.78;;;-0.60;99.90;;;;;;4969990;28;20026;-70
2024/01/16 09:33:22;;;;;;;14.07;5.80;;;-0.50;99.90;;;;;;4967549;28;20030;-70
2024/01/16 09:35:48;;;;;;;10.23;5.53;;;-0.50;99.90;;;;;;4967241;28;20026;-70
2024/01/16 09:38:14;;;;;;;13.52;5.85;;;-0.50;99.90;;;;;;4971471;28;20033;-70
2024/01/16 09:40:39;;;;;;;10.77;5.45;;;-0.40;99.90;;;;;;4971558;28;20042;-70
2024/01/16 09:43:08;;;;;;;11.10;5.30;;;-0.40;99.90;;;;;;4973586;28;20041;-70
2024/01/16 09:45:37;;;;;;;11.43;5.10;;;-0.40;99.90;;;;;;4971481;28;20133;-71
2024/01/16 09:48:05;;;;;;;9.65;5.35;;;-0.30;99.90;;;;;;4970917;28;20085;-71
2024/01/16 09:50:31;;;;;;;13.38;5.85;;;-0.30;99.90;;;;;;4976043;28;20058;-71
2024/01/16 09:52:56;;;;;;;9.10;4.80;;;-0.30;99.90;;;;;;4971385;28;20046;-72
2024/01/16 09:55:22;;;;;;;14.48;5.45;;;-0.30;99.90;;;;;;4973080;28;20516;-71
2024/01/16 09:57:52;;;;;;;10.07;5.10;;;-0.20;99.90;;;;;;4973865;28;20106;-71
2024/01/16 10:00:18;;;;;;;11.07;5.45;;;-0.30;99.90;;;;;;4974560;28;20030;-72
2024/01/16 10:02:45;;;;;;;10.43;5.00;;;-0.20;99.90;;;;;;4968948;28;20070;-72
2024/01/16 10:05:11;;;;;;;9.82;4.97;;;-0.20;99.90;;;;;;4972061;28;20114;-71
2024/01/16 10:07:45;;;;;;;8.80;4.80;;;-0.20;99.90;;;;;;4972694;28;20477;-71
2024/01/16 10:10:11;;;;;;;15.73;5.10;;;-0.20;99.90;;;;;;4973844;28;20019;-72
2024/01/16 10:12:39;;;;;;;8.88;4.63;;;-0.20;99.90;;;;;;4972846;28;20501;-72
2024/01/16 10:15:07;;;;;;;8.80;4.22;;;-0.20;99.90;;;;;;4972040;28;20110;-72
2024/01/16 10:17:42;;;;;;;10.27;4.50;;;-0.30;99.90;;;;;;4970461;28;20084;-72
2024/01/16 10:20:13;;;;;;;9.45;4.97;;;-0.20;99.90;;;;;;4970222;28;20386;-72
2024/01/16 10:22:52;;;;;;;10.05;4.68;;;-0.30;99.90;;;;;;4969711;28;20412;-71
2024/01/16 10:25:21;;;;;;;8.95;4.55;;;-0.30;99.90;;;;;;4969026;28;20026;-71
2024/01/16 10:27:47;;;;;;;11.27;5.00;;;-0.30;99.90;;;;;;4971297;28;20035;-72
2024/01/16 10:30:12;;;;;;;12.55;4.90;;;-0.30;99.90;;;;;;4970210;28;20030;-72
2024/01/16 10:32:40;;;;;;;12.77;6.00;;;-0.40;99.90;;;;;;4973380;28;20022;-72
2024/01/16 10:35:11;;;;;;;10.65;4.20;;;-0.40;99.90;;;;;;4972011;28;20023;-72
2024/01/16 10:37:49;;;;;;;8.68;4.90;;;-0.40;99.90;;;;;;4970614;28;20019;-72
2024/01/16 10:40:22;;;;;;;12.85;5.97;;;-0.40;99.90;;;;;;4971899;28;20140;-72
2024/01/16 10:43:20;;;;;;;9.20;4.30;;;-0.40;99.90;;;;;;4972371;28;20077;-72
2024/01/16 10:45:45;;;;;;;12.60;4.82;;;-0.40;99.90;;;;;;4950506;28;20043;-72
2024/01/16 10:48:11;;;;;;;14.63;5.38;;;-0.40;99.90;;;;;;4972451;28;20118;-72
2024/01/16 10:50:38;;;;;;;9.02;4.25;;;-0.30;99.90;;;;;;4966480;28;20164;-71
2024/01/16 10:53:06;;;;;;;12.98;4.65;;;-0.20;99.90;;;;;;4971257;28;20026;-72
2024/01/16 10:55:49;;;;;;;17.85;5.15;;;-0.20;99.90;;;;;;4972698;28;20030;-72
2024/01/16 10:58:15;;;;;;;7.40;4.03;;;-0.20;99.90;;;;;;4973698;28;20090;-72
2024/01/16 11:00:43;;;;;;;8.90;4.03;;;-0.10;99.90;;;;;;4968891;28;20106;-71
2024/01/16 11:03:15;;;;;;;12.40;5.10;;;-0.10;99.90;;;;;;4961729;28;20030;-72
2024/01/16 11:05:42;;;;;;;10.25;4.85;;;0.00;99.90;;;;;;4966878;28;20227;-73
2024/01/16 11:08:10;;;;;;;17.00;5.55;;;0.00;99.90;;;;;;4971451;28;20026;-72
2024/01/16 11:10:37;;;;;;;14.10;6.82;;;0.10;99.90;;;;;;4970826;28;20078;-72
2024/01/16 11:13:04;;;;;;;16.52;5.88;;;0.10;99.90;;;;;;4967409;28;20030;-72
2024/01/16 11:15:31;;;;;;;10.75;5.38;;;0.10;99.90;;;;;;4971940;28;20035;-72
2024/01/16 11:17:59;;;;;;;11.40;5.40;;;0.10;99.90;;;;;;4970995;28;20583;-72
2024/01/16 11:20:25;;;;;;;12.10;5.30;;;0.10;99.90;;;;;;4972909;28;20501;-72
2024/01/16 11:22:59;;;;;;;11.25;5.93;;;0.10;99.90;;;;;;4973915;28;20101;-72
2024/01/16 11:25:31;;;;;;;13.55;6.53;;;0.20;99.90;;;;;;4967328;28;20599;-72
2024/01/16 11:28:08;;;;;;;15.48;6.13;;;0.20;99.90;;;;;;4970432;28;20129;-73
2024/01/16 11:30:34;;;;;;;13.32;5.50;;;0.30;99.90;;;;;;4969516;28;20477;-72
2024/01/16 11:33:00;;;;;;;11.65;5.55;;;0.30;99.90;;;;;;4973436;28;20035;-72
2024/01/16 11:35:32;;;;;;;13.00;5.95;;;0.40;99.90;;;;;;4973075;28;20042;-73
2024/01/16 11:38:05;;;;;;;13.90;5.47;;;0.40;99.90;;;;;;4969977;28;20038;-73
2024/01/16 11:40:32;;;;;;;10.07;4.43;;;0.40;99.90;;;;;;4972095;28;20390;-73
2024/01/16 11:42:58;;;;;;;10.00;4.10;;;0.40;99.90;;;;;;4972059;28;20050;-73
2024/01/16 11:45:27;;;;;;;10.55;4.32;;;0.40;99.90;;;;;;4972445;28;20026;-74
2024/01/16 11:48:09;;;;;;;9.18;3.80;;;0.40;99.90;;;;;;4971506;28;20385;-72
2024/01/16 11:50:35;;;;;;;6.20;3.45;;;0.40;99.90;;;;;;4965962;28;20030;-72
2024/01/16 11:53:01;;;;;;;6.63;3.20;;;0.30;99.90;;;;;;4972291;28;20031;-73
2024/01/16 11:55:59;;;;;;;10.05;3.70;;;0.30;99.90;;;;;;4969637;28;20107;-72
2024/01/16 11:58:39;;;;;;;7.28;3.50;;;0.40;99.90;;;;;;4936141;28;20039;-72
2024/01/16 12:01:06;;;;;;;10.80;3.28;;;0.40;99.90;;;;;;4981909;28;20027;-73
2024/01/16 12:03:31;;;;;;;8.02;3.40;;;0.40;99.90;;;;;;4968811;28;20085;-73
2024/01/16 12:06:02;;;;;;;12.88;4.10;;;0.40;99.90;;;;;;4968951;28;20098;-73
2024/01/16 12:08:28;;;;;;;10.68;3.60;;;0.40;99.90;;;;;;4964556;28;20097;-73
2024/01/16 12:10:54;;;;;;;7.82;3.53;;;0.40;99.90;;;;;;4968557;28;20030;-73
2024/01/16 12:13:20;;;;;;;12.10;4.28;;;0.40;99.90;;;;;;4968005;28;20023;-73
2024/01/16 12:15:46;;;;;;;9.85;3.70;;;0.40;99.90;;;;;;4971941;28;20030;-73
2024/01/16 12:18:18;;;;;;;5.78;3.45;;;0.40;99.90;;;;;;4971851;28;20027;-73
2024/01/16 12:20:44;;;;;;;8.75;3.60;;;0.50;99.90;;;;;;4971164;28;20034;-73
2024/01/16 12:23:09;;;;;;;8.45;3.28;;;0.50;99.90;;;;;;4968604;28;20041;-73
2024/01/16 12:25:38;;;;;;;7.43;3.50;;;0.50;99.90;;;;;;4969435;28;20142;-73
2024/01/16 12:28:05;;;;;;;6.72;3.60;;;0.50;99.90;;;;;;4972514;28;20023;-73
2024/01/16 12:30:35;;;;;;;7.63;3.08;;;0.60;99.90;;;;;;4986073;28;20493;-73
2024/01/16 12:33:12;;;;;;;6.90;2.97;;;0.60;99.90;;;;;;4970974;28;20106;-73
2024/01/16 12:35:44;;;;;;;8.27;3.78;;;0.60;99.90;;;;;;4968329;28;20097;-73
2024/01/16 12:38:12;;;;;;;10.35;3.60;;;0.60;99.90;;;;;;4968481;28;20097;-73
2024/01/16 12:40:40;;;;;;;6.28;2.92;;;0.70;99.90;;;;;;4970411;28;20026;-73
2024/01/16 12:43:08;;;;;;;6.38;3.53;;;0.60;99.90;;;;;;4969625;28;20097;-74
2024/01/16 12:45:33;;;;;;;7.85;2.97;;;0.70;99.90;;;;;;4967193;28;20114;-74